createdAt,value
2018-11-25T00:01:01.161Z,79.53
2018-11-25T00:03:31.663Z,81.97
2018-11-25T00:06:15.091Z,83.83
2018-11-25T00:09:00.166Z,86.33
2018-11-25T00:11:42.279Z,85.70
2018-11-25T00:14:22.735Z,85.17
2018-11-25T00:17:01.326Z,86.90
2018-11-25T00:19:35.290Z,84.80
2018-11-25T00:22:09.397Z,86.73
2018-11-25T00:24:43.487Z,87.60
2018-11-25T00:27:16.242Z,84.17
2018-11-25T00:29:49.727Z,80.23
2018-11-25T00:32:23.913Z,80.67
2018-11-25T00:34:56.677Z,75.80
2018-11-25T00:37:30.231Z,74.83
2018-11-25T00:39:59.907Z,71.30
2018-11-25T00:42:29.747Z,71.37
2018-11-25T00:44:59.437Z,72.63
2018-11-25T00:47:36.117Z,74.73
2018-11-25T00:50:08.781Z,75.33
2018-11-25T00:52:47.486Z,79.43
2018-11-25T00:55:21.376Z,74.97
2018-11-25T00:57:52.849Z,76.73
2018-11-25T01:00:32.011Z,73.27
2018-11-25T01:03:08.206Z,75.10
2018-11-25T01:05:41.078Z,73.90
2018-11-25T01:08:16.780Z,74.87
2018-11-25T01:10:46.867Z,68.93
2018-11-25T01:13:20.864Z,71.43
2018-11-25T01:15:51.683Z,77.80
2018-11-25T01:18:25.772Z,76.70
2018-11-25T01:20:55.418Z,71.43
2018-11-25T01:23:26.408Z,70.60
2018-11-25T01:25:59.232Z,70.30
2018-11-25T01:28:30.127Z,64.80
2018-11-25T01:31:01.700Z,60.93
2018-11-25T01:36:12.318Z,59.87
2018-11-25T01:38:49.407Z,61.67
2018-11-25T01:41:23.564Z,59.97
2018-11-25T01:43:53.144Z,60.80
2018-11-25T01:46:24.168Z,58.33
2018-11-25T01:49:03.546Z,60.70
2018-11-25T01:51:39.765Z,59.63
2018-11-25T01:54:12.496Z,49.50
2018-11-25T01:56:46.302Z,48.97
2018-11-25T01:59:16.102Z,47.50
2018-11-25T02:01:45.852Z,50.57
2018-11-25T02:04:15.618Z,49.07
2018-11-25T02:06:51.450Z,46.83
2018-11-25T02:09:21.386Z,48.57
2018-11-25T02:11:57.319Z,49.30
2018-11-25T02:14:28.866Z,51.30
2018-11-25T02:16:58.670Z,59.50
2018-11-25T02:19:32.480Z,57.87
2018-11-25T02:22:02.786Z,56.87
2018-11-25T02:24:32.635Z,60.33
2018-11-25T02:27:02.961Z,56.97
2018-11-25T02:29:40.432Z,58.47
2018-11-25T02:32:13.161Z,58.07
2018-11-25T02:40:16.686Z,56.93
2018-11-25T02:42:49.494Z,59.03
2018-11-25T02:45:20.624Z,61.17
2018-11-25T02:47:53.325Z,61.27
2018-11-25T02:50:28.802Z,57.20
2018-11-25T02:53:00.227Z,59.90
2018-11-25T02:55:30.133Z,59.33
2018-11-25T02:58:01.464Z,58.17
2018-11-25T03:00:31.208Z,58.57
2018-11-25T03:03:04.147Z,58.57
2018-11-25T03:05:36.975Z,56.30
2018-11-25T03:08:06.779Z,59.27
2018-11-25T03:10:39.628Z,61.43
2018-11-25T03:13:10.517Z,59.63
2018-11-25T03:15:41.495Z,60.37
2018-11-25T03:18:11.263Z,59.67
2018-11-25T03:20:40.898Z,62.13
2018-11-25T03:23:10.710Z,61.97
2018-11-25T03:25:47.864Z,60.60
2018-11-25T03:28:23.651Z,61.20
2018-11-25T03:30:54.447Z,62.50
2018-11-25T03:33:24.177Z,61.77
2018-11-25T03:35:54.535Z,65.40
2018-11-25T03:38:24.181Z,65.70
2018-11-25T03:40:53.941Z,65.70
2018-11-25T03:43:23.565Z,65.10
2018-11-25T03:45:59.237Z,61.87
2018-11-25T03:48:28.917Z,66.17
2018-11-25T03:50:59.394Z,64.07
2018-11-25T03:53:36.061Z,63.10
2018-11-25T03:56:06.007Z,62.43
2018-11-25T03:58:37.227Z,66.87
2018-11-25T04:01:11.647Z,64.97
2018-11-25T04:03:41.416Z,63.77
2018-11-25T04:06:17.747Z,61.03
2018-11-25T04:08:47.500Z,64.63
2018-11-25T04:11:20.357Z,66.13
2018-11-25T04:13:50.201Z,62.30
2018-11-25T04:16:19.947Z,62.77
2018-11-25T04:18:53.774Z,63.50
2018-11-25T04:21:26.626Z,62.30
2018-11-25T04:24:02.401Z,62.00
2018-11-25T04:26:32.079Z,60.27
2018-11-25T04:29:01.748Z,57.50
2018-11-25T04:31:32.671Z,58.80
2018-11-25T04:34:02.499Z,59.03
2018-11-25T04:36:35.977Z,59.33
2018-11-25T04:39:09.231Z,59.43
2018-11-25T04:41:38.966Z,60.63
2018-11-25T04:44:13.072Z,63.47
2018-11-25T04:46:44.036Z,58.87
2018-11-25T04:49:23.284Z,62.13
2018-11-25T04:51:53.007Z,62.87
2018-11-25T04:54:25.767Z,61.50
2018-11-25T04:56:55.474Z,61.23
2018-11-25T04:59:25.163Z,63.17
2018-11-25T05:01:54.816Z,59.87
2018-11-25T05:04:24.517Z,60.73
2018-11-25T05:06:54.278Z,58.43
2018-11-25T05:09:25.105Z,59.60
2018-11-25T05:12:02.476Z,60.37
2018-11-25T05:14:32.343Z,58.53
2018-11-25T05:17:02.208Z,58.73
2018-11-25T05:19:35.087Z,61.03
2018-11-25T05:22:08.129Z,59.30
2018-11-25T05:24:45.201Z,67.30
2018-11-25T05:27:14.957Z,66.13
2018-11-25T05:29:49.017Z,72.30
2018-11-25T05:32:30.467Z,77.57
2018-11-25T05:35:00.181Z,85.67
2018-11-25T05:37:29.853Z,87.10
2018-11-25T05:40:00.292Z,94.70
2018-11-25T05:42:33.532Z,85.53
2018-11-25T05:45:04.282Z,86.80
2018-11-25T05:47:37.117Z,82.03
2018-11-25T05:50:09.346Z,79.97
2018-11-25T05:52:39.367Z,81.17
2018-11-25T05:55:10.832Z,75.40
2018-11-25T05:57:40.751Z,74.67
2018-11-25T06:00:21.686Z,70.97
2018-11-25T06:02:55.848Z,70.07
2018-11-25T06:05:31.655Z,74.37
2018-11-25T06:08:05.519Z,75.20
2018-11-25T06:10:40.686Z,73.13
2018-11-25T06:13:17.315Z,65.23
2018-11-25T06:24:13.159Z,62.63
2018-11-25T06:26:57.886Z,68.77
2018-11-25T06:29:34.455Z,77.13
2018-11-25T06:37:40.686Z,75.13
2018-11-25T06:40:24.307Z,74.93
2018-11-25T06:45:46.192Z,83.53
2018-11-25T06:48:34.902Z,89.57
2018-11-25T06:51:19.178Z,95.77
2018-11-25T06:59:26.376Z,102.00
2018-11-25T07:02:12.457Z,96.47
2018-11-25T07:07:45.449Z,105.27
2018-11-25T07:10:31.687Z,95.17
2018-11-25T07:13:09.081Z,84.60
2018-11-25T07:15:48.758Z,68.40
2018-11-25T07:18:36.127Z,62.33
2018-11-25T07:21:16.785Z,54.83
2018-11-25T07:59:03.115Z,53.63
2018-11-25T08:01:41.230Z,33.43
2018-11-25T08:04:19.435Z,32.30
2018-11-25T08:21:01.469Z,34.20
2018-11-25T08:26:29.937Z,37.77
2018-11-25T08:32:25.169Z,42.10
2018-11-25T08:46:11.708Z,50.10
2018-11-25T08:48:57.232Z,46.43
2018-11-25T08:52:19.250Z,46.93
2018-11-25T08:54:48.924Z,49.73
2018-11-25T08:57:18.719Z,48.30
2018-11-25T08:59:48.494Z,49.13
2018-11-25T09:02:18.058Z,49.60
2018-11-25T09:04:47.656Z,51.50
2018-11-25T09:07:17.340Z,49.83
2018-11-25T09:09:47.047Z,51.23
2018-11-25T09:12:16.756Z,51.03
2018-11-25T09:14:46.667Z,53.70
2018-11-25T09:17:16.439Z,52.83
2018-11-25T09:19:46.135Z,50.63
2018-11-25T09:22:15.748Z,50.90
2018-11-25T09:24:45.504Z,50.43
2018-11-25T09:27:15.121Z,51.83
2018-11-25T09:29:44.837Z,48.87
2018-11-25T09:32:14.516Z,48.80
2018-11-25T09:34:44.228Z,48.23
2018-11-25T09:37:13.931Z,43.90
2018-11-25T09:39:44.358Z,48.87
2018-11-25T09:42:14.050Z,44.90
2018-11-25T09:44:43.671Z,42.33
2018-11-25T09:47:13.690Z,36.67
2018-11-25T09:49:43.406Z,34.43
2018-11-25T09:52:13.104Z,30.87
2018-11-25T09:54:42.818Z,32.47
2018-11-25T09:57:12.438Z,32.17
2018-11-25T09:59:42.026Z,29.50
2018-11-25T10:02:11.738Z,29.23
2018-11-25T10:04:41.544Z,30.63
2018-11-25T10:07:11.452Z,30.90
2018-11-25T10:09:41.584Z,31.77
2018-11-25T10:12:11.300Z,30.97
2018-11-25T10:14:41.177Z,33.40
2018-11-25T10:17:10.951Z,31.53
2018-11-25T10:19:40.680Z,31.23
2018-11-25T10:22:10.547Z,31.20
2018-11-25T10:24:40.276Z,29.73
2018-11-25T10:27:10.144Z,29.70
2018-11-25T10:29:39.853Z,28.93
2018-11-25T10:32:09.559Z,28.17
2018-11-25T10:34:39.783Z,25.80
2018-11-25T10:37:09.795Z,27.70
2018-11-25T10:39:40.074Z,26.70
2018-11-25T10:42:10.339Z,25.57
2018-11-25T10:44:40.356Z,24.97
2018-11-25T10:47:10.284Z,26.20
2018-11-25T10:49:40.186Z,25.83
2018-11-25T10:52:09.930Z,24.90
2018-11-25T10:54:39.568Z,24.87
2018-11-25T10:57:09.337Z,25.60
2018-11-25T10:59:39.019Z,26.67
2018-11-25T11:02:12.829Z,24.93
2018-11-25T11:04:46.436Z,24.23
2018-11-25T11:07:20.235Z,22.73
2018-11-25T11:09:50.246Z,23.30
2018-11-25T11:12:20.046Z,21.73
2018-11-25T11:14:49.868Z,20.47
2018-11-25T11:17:19.583Z,20.13
2018-11-25T11:19:49.303Z,19.47
2018-11-25T11:22:18.916Z,19.40
2018-11-25T11:24:51.767Z,18.30
2018-11-25T11:27:21.688Z,18.73
2018-11-25T11:29:51.364Z,19.10
2018-11-25T11:32:21.614Z,18.83
2018-11-25T11:34:51.317Z,17.93
2018-11-25T11:37:21.230Z,17.67
2018-11-25T11:39:51.047Z,16.83
2018-11-25T11:42:24.259Z,16.60
2018-11-25T11:44:50.716Z,16.43
2018-11-25T11:47:20.976Z,17.40
2018-11-25T11:49:50.966Z,15.37
2018-11-25T11:52:21.125Z,16.43
2018-11-25T11:54:52.015Z,15.03
2018-11-25T11:57:21.867Z,15.73
2018-11-25T11:59:53.322Z,14.77
2018-11-25T12:02:31.350Z,15.83
2018-11-25T12:04:54.371Z,15.87
2018-11-25T12:07:23.961Z,15.83
2018-11-25T12:09:54.299Z,15.13
2018-11-25T12:12:25.547Z,15.40
2018-11-25T12:14:55.221Z,15.73
2018-11-25T12:17:24.956Z,15.03
2018-11-25T12:19:54.677Z,11.60
2018-11-25T12:22:24.466Z,13.63
2018-11-25T12:24:54.130Z,13.60
2018-11-25T12:27:23.907Z,15.30
2018-11-25T12:29:53.546Z,16.33
2018-11-25T12:32:23.208Z,16.00
2018-11-25T12:34:53.028Z,16.67
2018-11-25T12:37:22.666Z,16.67
2018-11-25T12:39:52.442Z,16.47
2018-11-25T12:42:22.144Z,16.93
2018-11-25T12:44:53.583Z,17.70
2018-11-25T12:47:24.291Z,18.13
2018-11-25T12:49:54.146Z,18.53
2018-11-25T12:52:23.863Z,18.20
2018-11-25T12:54:53.601Z,19.27
2018-11-25T12:57:23.367Z,19.87
2018-11-25T12:59:53.283Z,18.60
2018-11-25T13:02:26.267Z,17.57
2018-11-25T13:04:55.971Z,15.73
2018-11-25T13:07:25.685Z,16.60
2018-11-25T13:09:55.403Z,18.33
2018-11-25T13:12:25.335Z,17.97
2018-11-25T13:14:55.120Z,16.10
2018-11-25T13:17:27.864Z,16.10
2018-11-25T13:19:57.577Z,15.70
2018-11-25T13:22:27.209Z,13.07
2018-11-25T13:24:56.877Z,12.13
2018-11-25T13:27:26.626Z,11.27
2018-11-25T13:29:56.281Z,10.53
2018-11-25T13:32:25.892Z,10.37
2018-11-25T13:34:55.566Z,9.87
2018-11-25T13:37:25.214Z,10.13
2018-11-25T13:39:54.845Z,9.97
2018-11-25T13:42:24.666Z,10.80
2018-11-25T13:44:52.525Z,11.93
2018-11-25T13:47:23.850Z,11.90
2018-11-25T13:49:51.949Z,12.07
2018-11-25T13:52:21.656Z,13.10
2018-11-25T13:54:51.602Z,14.90
2018-11-25T13:57:21.302Z,14.33
2018-11-25T13:59:51.085Z,14.33
2018-11-25T14:02:21.463Z,14.60
2018-11-25T14:04:51.238Z,16.70
2018-11-25T14:07:20.882Z,15.07
2018-11-25T14:09:51.417Z,15.87
2018-11-25T14:12:21.057Z,17.90
2018-11-25T14:14:50.626Z,17.47
2018-11-25T14:17:20.268Z,17.13
2018-11-25T14:19:49.890Z,18.57
2018-11-25T14:22:19.542Z,18.23
2018-11-25T14:24:49.961Z,18.37
2018-11-25T14:27:19.622Z,18.80
2018-11-25T14:29:49.264Z,18.97
2018-11-25T14:32:18.937Z,20.40
2018-11-25T14:34:54.159Z,22.00
2018-11-25T14:37:27.227Z,23.93
2018-11-25T14:39:58.070Z,24.43
2018-11-25T14:42:29.588Z,24.20
2018-11-25T14:45:01.498Z,24.10
2018-11-25T14:47:32.083Z,24.07
2018-11-25T14:50:01.950Z,21.97
2018-11-25T14:52:31.663Z,22.20
2018-11-25T14:55:05.150Z,20.37
2018-11-25T14:57:34.866Z,19.50
2018-11-25T15:00:09.311Z,20.30
2018-11-25T15:02:39.049Z,21.40
2018-11-25T15:05:19.039Z,23.23
2018-11-25T15:07:48.759Z,28.47
2018-11-25T15:10:18.390Z,30.23
2018-11-25T15:12:49.336Z,30.00
2018-11-25T15:15:18.649Z,28.23
2018-11-25T15:17:48.408Z,26.87
2018-11-25T15:20:18.062Z,25.50
2018-11-25T15:22:50.810Z,25.80
2018-11-25T15:25:24.267Z,26.73
2018-11-25T15:27:53.888Z,25.47
2018-11-25T15:30:23.609Z,24.50
2018-11-25T15:32:53.220Z,25.23
2018-11-25T15:35:22.836Z,25.90
2018-11-25T15:37:53.997Z,26.87
2018-11-25T15:40:33.379Z,26.63
2018-11-25T15:43:03.150Z,29.03
2018-11-25T15:45:33.017Z,28.57
2018-11-25T15:48:12.475Z,31.07
2018-11-25T15:50:42.250Z,35.47
2018-11-25T15:53:12.562Z,38.37
2018-11-25T15:55:43.567Z,38.03
2018-11-25T15:58:13.247Z,34.20
2018-11-25T16:00:43.224Z,30.53
2018-11-25T16:03:14.339Z,31.23
2018-11-25T16:05:46.690Z,32.93
2018-11-25T16:08:16.409Z,34.43
2018-11-25T16:10:46.165Z,34.93
2018-11-25T16:13:16.057Z,34.93
2018-11-25T16:15:45.696Z,33.47
2018-11-25T16:18:15.407Z,34.73
2018-11-25T16:20:45.037Z,38.90
2018-11-25T16:23:14.657Z,38.70
2018-11-25T16:25:50.477Z,39.67
2018-11-25T16:28:32.848Z,37.57
2018-11-25T16:31:05.624Z,38.27
2018-11-25T16:33:35.407Z,36.67
2018-11-25T16:36:06.249Z,34.67
2018-11-25T16:38:35.938Z,35.53
2018-11-25T16:41:06.380Z,33.27
2018-11-25T16:43:36.157Z,35.23
2018-11-25T16:46:05.878Z,34.13
2018-11-25T16:48:35.547Z,32.57
2018-11-25T16:51:05.317Z,31.50
2018-11-25T16:53:35.040Z,32.20
2018-11-25T16:56:04.699Z,35.13
2018-11-25T16:58:34.404Z,35.10
2018-11-25T17:01:09.832Z,32.33
2018-11-25T17:03:34.683Z,33.03
2018-11-25T17:06:04.496Z,31.77
2018-11-25T17:08:40.607Z,31.03
2018-11-25T17:11:10.581Z,32.53
2018-11-25T17:13:40.352Z,31.50
2018-11-25T17:16:10.578Z,31.10
2018-11-25T17:18:41.088Z,29.83
2018-11-25T17:21:10.773Z,31.77
2018-11-25T17:23:40.657Z,31.17
2018-11-25T17:26:11.707Z,32.13
2018-11-25T17:28:41.376Z,32.17
2018-11-25T17:31:20.257Z,32.67
2018-11-25T17:33:49.971Z,30.50
2018-11-25T17:36:20.017Z,28.43
2018-11-25T17:38:55.865Z,29.27
2018-11-25T17:41:25.647Z,31.47
2018-11-25T17:43:55.447Z,32.60
2018-11-25T17:46:28.156Z,31.83
2018-11-25T17:48:58.126Z,29.27
2018-11-25T17:51:27.894Z,28.37
2018-11-25T17:53:57.657Z,26.83
2018-11-25T17:56:27.577Z,25.57
2018-11-25T17:58:57.287Z,25.43
2018-11-25T18:01:27.190Z,23.90
2018-11-25T18:03:58.057Z,25.27
2018-11-25T18:06:28.564Z,24.53
2018-11-25T18:08:58.575Z,24.17
2018-11-25T18:11:28.594Z,25.33
2018-11-25T18:13:58.351Z,26.33
2018-11-25T18:16:28.213Z,27.47
2018-11-25T18:19:11.117Z,24.93
2018-11-25T18:21:41.057Z,23.33
2018-11-25T18:24:11.573Z,22.47
2018-11-25T18:26:41.536Z,21.67
2018-11-25T18:29:11.252Z,20.90
2018-11-25T18:31:45.661Z,21.73
2018-11-25T18:34:15.589Z,21.90
2018-11-25T18:36:45.947Z,21.57
2018-11-25T18:39:16.817Z,21.83
2018-11-25T18:41:47.206Z,33.67
2018-11-25T18:44:17.216Z,46.40
2018-11-25T18:46:48.413Z,56.33
2018-11-25T18:49:17.153Z,63.80
2018-11-25T18:51:47.095Z,59.73
2018-11-25T18:54:17.185Z,59.27
2018-11-25T18:56:47.057Z,44.33
2018-11-25T18:59:16.888Z,37.27
2018-11-25T19:01:57.363Z,33.37
2018-11-25T19:04:28.391Z,31.83
2018-11-25T19:06:58.928Z,30.83
2018-11-25T19:09:28.695Z,31.83
2018-11-25T19:12:00.275Z,29.20
2018-11-25T19:14:30.403Z,30.43
2018-11-25T19:17:00.318Z,30.73
2018-11-25T19:19:30.233Z,29.10
2018-11-25T19:22:04.298Z,26.70
2018-11-25T19:24:34.131Z,26.57
2018-11-25T19:27:08.312Z,26.10
2018-11-25T19:29:38.659Z,26.73
2018-11-25T19:32:09.561Z,26.80
2018-11-25T19:34:39.307Z,28.10
2018-11-25T19:37:10.501Z,27.70
2018-11-25T19:39:40.851Z,29.77
2018-11-25T19:42:10.726Z,31.07
2018-11-25T19:44:41.892Z,33.47
2018-11-25T19:47:11.984Z,30.90
2018-11-25T19:49:42.523Z,30.33
2018-11-25T19:52:15.606Z,29.33
2018-11-25T19:54:50.116Z,28.10
2018-11-25T19:57:20.159Z,28.57
2018-11-25T19:59:49.954Z,25.10
2018-11-25T20:02:23.089Z,26.13
2018-11-25T20:04:53.361Z,25.83
2018-11-25T20:07:23.306Z,25.43
2018-11-25T20:09:57.776Z,26.33
2018-11-25T20:12:32.978Z,26.53
2018-11-25T20:15:05.792Z,25.97
2018-11-25T20:17:35.561Z,25.83
2018-11-25T20:20:08.705Z,25.73
2018-11-25T20:22:39.765Z,24.83
2018-11-25T20:25:12.376Z,25.57
2018-11-25T20:27:46.397Z,24.73
2018-11-25T20:30:21.890Z,25.57
2018-11-25T20:32:56.278Z,25.70
2018-11-25T20:35:25.989Z,28.60
2018-11-25T20:37:59.795Z,28.90
2018-11-25T20:40:29.606Z,30.60
2018-11-25T20:42:59.384Z,30.77
2018-11-25T20:45:38.568Z,31.27
2018-11-25T20:48:08.970Z,32.67
2018-11-25T20:50:39.898Z,30.93
2018-11-25T20:53:13.614Z,30.10
2018-11-25T20:55:44.028Z,29.27
2018-11-25T20:58:15.231Z,30.17
2018-11-25T21:00:45.050Z,31.23
2018-11-25T21:03:15.114Z,32.30
2018-11-25T21:05:45.335Z,30.40
2018-11-25T21:08:14.908Z,31.07
2018-11-25T21:10:45.093Z,32.50
2018-11-25T21:13:14.865Z,33.50
2018-11-25T21:15:44.520Z,33.20
2018-11-25T21:18:14.488Z,34.20
2018-11-25T21:20:51.086Z,35.40
2018-11-25T21:23:14.191Z,36.10
2018-11-25T21:25:44.125Z,36.93
2018-11-25T21:28:13.948Z,41.10
2018-11-25T21:30:43.688Z,37.40
2018-11-25T21:33:13.340Z,36.10
2018-11-25T21:35:43.203Z,34.93
2018-11-25T21:38:13.169Z,35.83
2018-11-25T21:40:42.720Z,35.73
2018-11-25T21:43:12.403Z,35.60
2018-11-25T21:45:42.337Z,35.67
2018-11-25T21:48:12.206Z,35.93
2018-11-25T21:50:41.907Z,35.50
2018-11-25T21:53:11.931Z,38.63
2018-11-25T21:55:41.637Z,37.57
2018-11-25T21:58:11.346Z,35.50
2018-11-25T22:00:41.256Z,34.90
2018-11-25T22:03:10.936Z,35.27
2018-11-25T22:05:40.953Z,33.93
2018-11-25T22:08:10.708Z,33.83
2018-11-25T22:10:40.320Z,35.87
2018-11-25T22:13:12.547Z,38.40
2018-11-25T22:15:42.508Z,39.70
2018-11-25T22:18:12.471Z,45.53
2018-11-25T22:20:42.265Z,46.77
2018-11-25T22:23:12.099Z,47.80
2018-11-25T22:25:42.809Z,52.83
2018-11-25T22:28:12.378Z,54.00
2018-11-25T22:30:41.982Z,57.57
2018-11-25T22:33:11.608Z,58.90
2018-11-25T22:35:41.285Z,62.07
2018-11-25T22:38:10.981Z,64.10
2018-11-25T22:40:40.788Z,65.57
2018-11-25T22:43:10.396Z,69.93
2018-11-25T22:45:40.002Z,74.40
2018-11-25T22:48:09.787Z,75.10
2018-11-25T22:50:39.527Z,75.77
2018-11-25T22:53:09.224Z,85.63
2018-11-25T22:55:38.871Z,85.83
2018-11-25T22:58:08.499Z,91.33
2018-11-25T23:00:48.000Z,93.07
2018-11-25T23:03:17.636Z,99.67
2018-11-25T23:06:00.461Z,99.30
2018-11-25T23:08:30.113Z,102.10
2018-11-25T23:10:59.739Z,104.60
2018-11-25T23:13:29.427Z,105.33
2018-11-25T23:15:59.020Z,104.13
2018-11-25T23:18:28.669Z,101.77
2018-11-25T23:20:58.290Z,102.87
2018-11-25T23:23:28.061Z,104.77
2018-11-25T23:25:57.637Z,105.20
2018-11-25T23:28:27.216Z,102.73
2018-11-25T23:30:56.861Z,103.40
2018-11-25T23:33:26.627Z,100.07
2018-11-25T23:35:56.231Z,101.77
2018-11-25T23:38:25.840Z,99.67
2018-11-25T23:40:55.407Z,96.27
2018-11-25T23:43:25.208Z,91.67
2018-11-25T23:45:54.818Z,88.10
2018-11-25T23:48:24.387Z,86.07
2018-11-25T23:50:54.018Z,87.90
2018-11-25T23:53:23.624Z,90.17
2018-11-25T23:55:53.444Z,88.97
2018-11-25T23:58:23.155Z,100.77
